createdAt,value
2019-03-21T00:01:38.063Z,32.93
2019-03-21T00:04:14.621Z,40.23
2019-03-21T00:06:43.423Z,40.23
2019-03-21T00:09:15.050Z,36.57
2019-03-21T00:12:01.272Z,34.60
2019-03-21T00:14:47.989Z,33.17
2019-03-21T00:17:22.426Z,32.80
2019-03-21T00:19:51.144Z,32.80
2019-03-21T00:22:19.857Z,30.40
2019-03-21T00:24:48.599Z,30.83
2019-03-21T00:27:17.387Z,32.23
2019-03-21T00:29:46.067Z,30.00
2019-03-21T00:32:14.878Z,31.27
2019-03-21T00:34:43.472Z,30.90
2019-03-21T00:37:12.268Z,31.77
2019-03-21T00:39:41.009Z,31.90
2019-03-21T00:42:09.770Z,29.83
2019-03-21T00:44:38.594Z,29.60
2019-03-21T00:47:07.502Z,29.80
2019-03-21T00:49:36.305Z,29.47
2019-03-21T00:52:05.028Z,28.90
2019-03-21T00:54:33.788Z,29.97
2019-03-21T00:57:02.475Z,28.00
2019-03-21T00:59:31.140Z,29.33
2019-03-21T01:02:00.225Z,28.40
2019-03-21T01:04:29.356Z,27.30
2019-03-21T01:06:58.192Z,26.60
2019-03-21T01:09:26.886Z,25.60
2019-03-21T01:11:55.615Z,26.70
2019-03-21T01:14:29.724Z,26.23
2019-03-21T01:16:54.898Z,25.27
2019-03-21T01:19:23.576Z,24.33
2019-03-21T01:21:52.246Z,24.87
2019-03-21T01:24:21.071Z,23.37
2019-03-21T01:26:49.753Z,24.73
2019-03-21T01:29:18.433Z,25.83
2019-03-21T01:31:47.275Z,24.23
2019-03-21T01:34:16.022Z,24.40
2019-03-21T01:36:44.790Z,24.37
2019-03-21T01:39:13.584Z,24.53
2019-03-21T01:41:42.233Z,23.23
2019-03-21T01:44:10.856Z,24.03
2019-03-21T01:46:39.769Z,25.07
2019-03-21T01:49:08.520Z,24.23
2019-03-21T01:51:37.153Z,24.00
2019-03-21T01:54:05.868Z,23.17
2019-03-21T01:56:34.652Z,24.10
2019-03-21T01:59:03.259Z,23.83
2019-03-21T02:01:32.052Z,24.10
2019-03-21T02:04:00.734Z,23.07
2019-03-21T02:06:29.451Z,22.67
2019-03-21T02:08:58.148Z,22.13
2019-03-21T02:11:27.026Z,23.43
2019-03-21T02:13:55.703Z,21.83
2019-03-21T02:16:24.638Z,23.40
2019-03-21T02:18:53.311Z,22.03
2019-03-21T02:21:22.023Z,21.00
2019-03-21T02:23:50.809Z,20.70
2019-03-21T02:26:19.611Z,20.93
2019-03-21T02:28:48.352Z,19.23
2019-03-21T02:31:17.061Z,19.70
2019-03-21T02:33:45.909Z,18.27
2019-03-21T02:36:14.916Z,19.90
2019-03-21T02:38:43.754Z,18.93
2019-03-21T02:41:14.664Z,19.43
2019-03-21T02:43:43.541Z,18.47
2019-03-21T02:46:12.408Z,19.73
2019-03-21T02:48:41.104Z,19.13
2019-03-21T02:51:09.945Z,18.10
2019-03-21T02:53:38.777Z,17.63
2019-03-21T02:56:10.829Z,17.17
2019-03-21T02:58:39.634Z,17.33
2019-03-21T03:01:08.490Z,15.17
2019-03-21T03:03:37.195Z,14.67
2019-03-21T03:06:06.152Z,14.97
2019-03-21T03:08:34.949Z,14.33
2019-03-21T03:11:11.092Z,14.60
2019-03-21T03:13:41.426Z,14.63
2019-03-21T03:16:10.139Z,13.47
2019-03-21T03:18:38.749Z,12.60
2019-03-21T03:21:07.540Z,12.87
2019-03-21T03:23:36.265Z,13.03
2019-03-21T03:26:05.103Z,12.93
2019-03-21T03:28:45.824Z,12.70
2019-03-21T03:31:14.587Z,13.87
2019-03-21T03:33:43.213Z,12.70
2019-03-21T03:36:13.050Z,12.47
2019-03-21T03:38:41.750Z,13.10
2019-03-21T03:41:12.759Z,13.20
2019-03-21T03:43:41.609Z,12.87
2019-03-21T03:46:10.270Z,13.33
2019-03-21T03:48:39.138Z,13.00
2019-03-21T03:51:07.993Z,13.33
2019-03-21T03:53:36.810Z,13.20
2019-03-21T03:56:05.539Z,13.73
2019-03-21T03:58:40.391Z,13.20
2019-03-21T04:01:09.277Z,13.70
2019-03-21T04:03:39.093Z,13.70
2019-03-21T04:06:07.827Z,14.00
2019-03-21T04:08:36.620Z,13.07
2019-03-21T04:11:05.408Z,14.00
2019-03-21T04:13:34.279Z,13.50
2019-03-21T04:16:03.243Z,13.77
2019-03-21T04:18:31.922Z,12.90
2019-03-21T04:21:07.054Z,13.50
2019-03-21T04:23:35.759Z,13.43
2019-03-21T04:26:13.225Z,14.37
2019-03-21T04:28:42.909Z,13.40
2019-03-21T04:31:11.550Z,12.90
2019-03-21T04:33:40.776Z,13.47
2019-03-21T04:36:09.531Z,13.87
2019-03-21T04:38:38.205Z,13.43
2019-03-21T04:41:06.878Z,12.87
2019-03-21T04:43:35.599Z,12.60
2019-03-21T04:46:04.372Z,13.47
2019-03-21T04:48:33.094Z,13.80
2019-03-21T04:51:01.782Z,14.77
2019-03-21T04:53:30.524Z,15.67
2019-03-21T04:55:59.329Z,15.00
2019-03-21T04:58:28.195Z,15.13
2019-03-21T05:00:58.348Z,14.67
2019-03-21T05:03:31.556Z,14.87
2019-03-21T05:06:00.272Z,14.07
2019-03-21T05:08:28.879Z,14.87
2019-03-21T05:10:57.664Z,12.97
2019-03-21T05:13:26.394Z,13.97
2019-03-21T05:15:55.433Z,14.23
2019-03-21T05:18:33.485Z,14.33
2019-03-21T05:21:03.889Z,13.40
2019-03-21T05:23:32.617Z,14.37
2019-03-21T05:26:03.846Z,14.37
2019-03-21T05:28:31.645Z,14.20
2019-03-21T05:31:09.830Z,13.80
2019-03-21T05:33:38.464Z,14.93
2019-03-21T05:36:07.233Z,14.60
2019-03-21T05:38:35.975Z,14.53
2019-03-21T05:41:04.759Z,14.23
2019-03-21T05:43:45.520Z,15.63
2019-03-21T05:46:25.680Z,14.30
2019-03-21T05:48:44.631Z,15.37
2019-03-21T05:51:13.457Z,15.00
2019-03-21T05:53:42.201Z,15.93
2019-03-21T05:56:10.839Z,16.57
2019-03-21T05:58:39.620Z,17.73
2019-03-21T06:01:10.934Z,19.57
2019-03-21T06:03:53.245Z,17.90
2019-03-21T06:06:33.652Z,18.87
2019-03-21T06:09:02.480Z,18.13
2019-03-21T06:11:31.428Z,16.47
2019-03-21T06:14:00.162Z,15.87
2019-03-21T06:16:37.228Z,16.87
2019-03-21T06:19:11.191Z,16.07
2019-03-21T06:21:48.767Z,15.77
2019-03-21T06:24:26.289Z,15.73
2019-03-21T06:27:14.339Z,16.63
2019-03-21T06:29:37.192Z,16.60
2019-03-21T06:32:05.907Z,15.60
2019-03-21T06:34:34.644Z,15.83
2019-03-21T06:37:03.489Z,16.53
2019-03-21T06:39:32.352Z,17.23
2019-03-21T06:42:01.028Z,17.33
2019-03-21T06:44:29.663Z,16.23
2019-03-21T06:46:58.347Z,17.20
2019-03-21T06:49:27.239Z,16.13
2019-03-21T06:51:55.889Z,16.00
2019-03-21T06:54:24.581Z,17.13
2019-03-21T06:56:53.322Z,16.60
2019-03-21T06:59:22.208Z,15.70
2019-03-21T07:01:51.157Z,16.90
2019-03-21T07:04:19.910Z,17.10
2019-03-21T07:06:48.647Z,17.17
2019-03-21T07:09:17.351Z,18.20
2019-03-21T07:11:46.142Z,17.53
2019-03-21T07:14:14.893Z,15.67
2019-03-21T07:16:43.713Z,16.80
2019-03-21T07:19:12.525Z,16.77
2019-03-21T07:21:41.287Z,16.93
2019-03-21T07:24:09.997Z,16.83
2019-03-21T07:26:38.863Z,17.50
2019-03-21T07:29:07.496Z,17.70
2019-03-21T07:31:36.443Z,18.03
2019-03-21T07:34:05.700Z,18.27
2019-03-21T07:36:34.543Z,16.87
2019-03-21T07:39:04.474Z,16.53
2019-03-21T07:41:34.575Z,16.37
2019-03-21T07:44:03.584Z,17.43
2019-03-21T07:46:33.253Z,17.30
2019-03-21T07:49:02.132Z,17.60
2019-03-21T07:51:30.769Z,16.20
2019-03-21T07:53:59.555Z,16.53
2019-03-21T07:56:28.314Z,16.50
2019-03-21T07:58:57.896Z,17.67
2019-03-21T08:01:26.876Z,16.43
2019-03-21T08:03:55.606Z,16.83
2019-03-21T08:06:24.352Z,17.70
2019-03-21T08:08:53.246Z,16.57
2019-03-21T08:11:22.140Z,16.43
2019-03-21T08:13:50.912Z,16.50
2019-03-21T08:16:19.977Z,16.43
2019-03-21T08:18:48.855Z,15.30
2019-03-21T08:21:17.959Z,16.70
2019-03-21T08:23:46.885Z,16.77
2019-03-21T08:26:15.802Z,16.97
2019-03-21T08:28:44.505Z,16.13
2019-03-21T08:31:14.511Z,17.43
2019-03-21T08:33:44.057Z,17.67
2019-03-21T08:36:12.927Z,15.93
2019-03-21T08:38:41.646Z,17.20
2019-03-21T08:41:10.783Z,16.63
2019-03-21T08:43:39.506Z,16.57
2019-03-21T08:46:08.281Z,16.50
2019-03-21T08:48:37.394Z,16.83
2019-03-21T08:51:08.510Z,17.27
2019-03-21T08:53:36.431Z,17.67
2019-03-21T08:56:05.219Z,18.67
2019-03-21T08:58:34.007Z,16.77
2019-03-21T09:01:02.744Z,17.97
2019-03-21T09:03:31.558Z,17.07
2019-03-21T09:06:00.234Z,16.87
2019-03-21T09:08:28.906Z,18.53
2019-03-21T09:10:57.666Z,18.17
2019-03-21T09:13:26.281Z,18.13
2019-03-21T09:15:55.110Z,17.67
2019-03-21T09:18:23.886Z,18.90
2019-03-21T09:20:52.624Z,17.47
2019-03-21T09:23:21.333Z,18.77
2019-03-21T09:25:51.313Z,18.67
2019-03-21T09:28:20.308Z,20.67
2019-03-21T09:30:50.656Z,19.40
2019-03-21T09:33:19.689Z,19.63
2019-03-21T09:35:48.345Z,19.37
2019-03-21T09:38:17.068Z,19.77
2019-03-21T09:40:45.740Z,20.27
2019-03-21T09:43:14.464Z,19.97
2019-03-21T09:45:43.216Z,20.00
2019-03-21T09:48:11.983Z,20.33
2019-03-21T09:50:40.719Z,20.70
2019-03-21T09:53:09.414Z,19.43
2019-03-21T09:55:38.093Z,20.40
2019-03-21T09:58:06.912Z,20.73
2019-03-21T10:00:36.943Z,22.20
2019-03-21T10:03:06.549Z,20.97
2019-03-21T10:05:35.295Z,20.73
2019-03-21T10:08:04.496Z,20.80
2019-03-21T10:10:34.396Z,20.70
2019-03-21T10:13:03.168Z,19.90
2019-03-21T10:15:32.002Z,19.87
2019-03-21T10:18:00.798Z,22.27
2019-03-21T10:20:29.575Z,22.17
2019-03-21T10:22:58.240Z,22.93
2019-03-21T10:25:27.374Z,20.03
2019-03-21T10:27:56.116Z,20.27
2019-03-21T10:30:39.082Z,20.57
2019-03-21T10:33:09.795Z,19.53
2019-03-21T10:35:38.450Z,20.67
2019-03-21T10:38:07.940Z,19.70
2019-03-21T10:40:37.262Z,20.07
2019-03-21T10:43:06.473Z,20.80
2019-03-21T10:45:36.261Z,20.70
2019-03-21T10:48:05.724Z,20.23
2019-03-21T10:50:36.301Z,18.93
2019-03-21T10:53:05.750Z,20.50
2019-03-21T10:55:34.599Z,20.07
2019-03-21T10:58:03.563Z,18.67
2019-03-21T11:00:32.370Z,19.37
2019-03-21T11:03:01.195Z,18.53
2019-03-21T11:05:29.937Z,18.17
2019-03-21T11:07:58.667Z,18.73
2019-03-21T11:10:27.444Z,19.97
2019-03-21T11:12:56.219Z,19.10
2019-03-21T11:15:24.946Z,20.10
2019-03-21T11:17:55.135Z,20.43
2019-03-21T11:20:34.993Z,20.23
2019-03-21T11:23:04.686Z,17.47
2019-03-21T11:25:33.579Z,19.07
2019-03-21T11:28:02.569Z,19.27
2019-03-21T11:30:42.478Z,19.57
2019-03-21T11:33:11.912Z,19.43
2019-03-21T11:35:40.888Z,19.43
2019-03-21T11:38:09.608Z,20.07
2019-03-21T11:40:38.587Z,19.00
2019-03-21T11:43:08.522Z,19.57
2019-03-21T11:45:37.344Z,18.20
2019-03-21T11:48:06.457Z,18.07
2019-03-21T11:50:35.443Z,17.67
2019-03-21T11:53:04.946Z,18.50
2019-03-21T11:55:33.842Z,17.17
2019-03-21T11:58:02.461Z,18.53
2019-03-21T12:00:42.978Z,16.70
2019-03-21T12:03:04.104Z,16.03
2019-03-21T12:05:32.184Z,16.20
2019-03-21T12:08:01.015Z,16.73
2019-03-21T12:10:29.741Z,16.77
2019-03-21T12:12:58.618Z,17.27
2019-03-21T12:15:27.547Z,17.47
2019-03-21T12:17:56.236Z,17.47
2019-03-21T12:20:29.854Z,17.83
2019-03-21T12:22:58.637Z,16.27
2019-03-21T12:25:27.480Z,15.83
2019-03-21T12:27:56.584Z,16.40
2019-03-21T12:30:36.582Z,15.47
2019-03-21T12:33:05.785Z,15.70
2019-03-21T12:35:34.574Z,14.50
2019-03-21T12:38:03.455Z,13.90
2019-03-21T12:40:32.276Z,15.60
2019-03-21T12:43:00.954Z,15.13
2019-03-21T12:45:29.715Z,14.17
2019-03-21T12:47:58.470Z,15.70
2019-03-21T12:50:27.086Z,15.70
2019-03-21T12:52:55.892Z,14.03
2019-03-21T12:55:24.602Z,15.63
2019-03-21T12:57:53.313Z,14.17
2019-03-21T13:00:27.730Z,14.10
2019-03-21T13:02:56.429Z,14.20
2019-03-21T13:05:28.229Z,15.20
2019-03-21T13:07:57.069Z,14.57
2019-03-21T13:10:26.063Z,14.33
2019-03-21T13:12:54.731Z,12.93
2019-03-21T13:15:29.980Z,14.77
2019-03-21T13:17:54.457Z,13.33
2019-03-21T13:20:23.925Z,13.47
2019-03-21T13:22:53.634Z,13.90
2019-03-21T13:25:22.850Z,13.50
2019-03-21T13:27:51.878Z,13.37
2019-03-21T13:30:21.231Z,12.37
2019-03-21T13:32:50.197Z,13.33
2019-03-21T13:35:19.393Z,10.50
2019-03-21T13:37:48.349Z,10.93
2019-03-21T13:40:17.506Z,12.83
2019-03-21T13:42:46.407Z,12.00
2019-03-21T13:45:15.820Z,11.20
2019-03-21T13:47:44.718Z,12.63
2019-03-21T13:50:13.700Z,10.93
2019-03-21T13:52:42.448Z,12.93
2019-03-21T13:55:11.765Z,11.63
2019-03-21T13:57:40.587Z,11.97
2019-03-21T14:00:12.440Z,11.80
2019-03-21T14:02:41.188Z,11.67
2019-03-21T14:05:09.978Z,10.60
2019-03-21T14:07:38.971Z,10.30
2019-03-21T14:10:09.336Z,10.50
2019-03-21T14:12:38.131Z,11.13
2019-03-21T14:15:09.550Z,11.07
2019-03-21T14:17:38.331Z,10.37
2019-03-21T14:20:09.398Z,10.33
2019-03-21T14:22:38.207Z,10.37
2019-03-21T14:25:07.878Z,10.57
2019-03-21T14:27:37.130Z,9.33
2019-03-21T14:30:14.670Z,8.67
2019-03-21T14:32:43.654Z,10.07
2019-03-21T14:35:12.853Z,10.97
2019-03-21T14:37:41.599Z,10.33
2019-03-21T14:40:12.907Z,9.90
2019-03-21T14:42:42.602Z,10.07
2019-03-21T14:45:13.989Z,10.57
2019-03-21T14:47:42.742Z,11.07
2019-03-21T14:50:13.604Z,12.67
2019-03-21T14:52:42.404Z,11.40
2019-03-21T14:55:13.673Z,11.77
2019-03-21T14:57:42.397Z,11.77
2019-03-21T15:00:14.193Z,12.53
2019-03-21T15:02:42.930Z,11.97
2019-03-21T15:05:12.498Z,12.03
2019-03-21T15:07:41.268Z,11.10
2019-03-21T15:10:12.737Z,11.97
2019-03-21T15:12:41.422Z,13.30
2019-03-21T15:15:12.806Z,14.20
2019-03-21T15:17:41.736Z,12.67
2019-03-21T15:20:13.027Z,12.53
2019-03-21T15:22:42.030Z,12.80
2019-03-21T15:25:12.208Z,13.00
2019-03-21T15:27:40.949Z,14.17
2019-03-21T15:30:13.200Z,13.93
2019-03-21T15:32:42.374Z,15.27
2019-03-21T15:35:12.312Z,16.37
2019-03-21T15:37:41.030Z,15.13
2019-03-21T15:40:12.355Z,16.37
2019-03-21T15:42:41.072Z,16.10
2019-03-21T15:45:22.351Z,16.33
2019-03-21T15:47:43.754Z,17.20
2019-03-21T15:50:18.543Z,17.73
2019-03-21T15:52:47.292Z,17.67
2019-03-21T15:55:16.091Z,17.67
2019-03-21T15:57:45.000Z,17.77
2019-03-21T16:00:16.877Z,17.57
2019-03-21T16:02:45.688Z,17.00
2019-03-21T16:05:14.600Z,16.73
2019-03-21T16:07:43.341Z,16.80
2019-03-21T16:10:12.124Z,18.67
2019-03-21T16:12:40.873Z,16.40
2019-03-21T16:15:09.755Z,16.77
2019-03-21T16:17:38.444Z,17.07
2019-03-21T16:20:08.872Z,17.37
2019-03-21T16:22:37.770Z,19.53
2019-03-21T16:25:08.030Z,19.30
2019-03-21T16:27:37.658Z,18.87
2019-03-21T16:30:10.943Z,18.50
2019-03-21T16:32:39.734Z,18.23
2019-03-21T16:35:09.405Z,19.27
2019-03-21T16:37:38.219Z,19.23
2019-03-21T16:40:09.239Z,20.60
2019-03-21T16:42:37.961Z,21.60
2019-03-21T16:45:09.254Z,22.70
2019-03-21T16:47:38.285Z,23.10
2019-03-21T16:50:14.968Z,25.13
2019-03-21T16:52:44.651Z,23.87
2019-03-21T16:55:14.711Z,23.30
2019-03-21T16:57:43.666Z,23.23
2019-03-21T17:00:18.034Z,23.40
2019-03-21T17:02:50.498Z,24.80
2019-03-21T17:05:22.021Z,27.30
2019-03-21T17:07:49.879Z,29.70
2019-03-21T17:10:19.016Z,31.00
2019-03-21T17:12:47.972Z,29.97
2019-03-21T17:15:17.013Z,28.57
2019-03-21T17:17:45.819Z,27.67
2019-03-21T17:20:14.808Z,28.73
2019-03-21T17:22:43.565Z,27.10
2019-03-21T17:25:13.754Z,25.27
2019-03-21T17:27:42.819Z,25.10
2019-03-21T17:30:18.921Z,23.13
2019-03-21T17:32:47.776Z,23.70
2019-03-21T17:35:16.652Z,30.57
2019-03-21T17:37:45.357Z,34.27
2019-03-21T17:40:15.429Z,39.87
2019-03-21T17:42:44.213Z,68.17
2019-03-21T17:45:15.313Z,68.80
2019-03-21T17:47:44.197Z,106.93
2019-03-21T17:50:15.307Z,87.67
2019-03-21T17:52:44.070Z,65.40
2019-03-21T17:55:13.380Z,67.50
2019-03-21T17:57:42.326Z,67.03
2019-03-21T18:00:16.794Z,74.17
2019-03-21T18:02:45.826Z,82.60
2019-03-21T18:05:14.762Z,71.03
2019-03-21T18:07:43.622Z,62.87
2019-03-21T18:10:29.619Z,60.87
2019-03-21T18:12:58.664Z,60.67
2019-03-21T18:15:27.917Z,60.67
2019-03-21T18:17:56.674Z,72.20
2019-03-21T18:20:25.714Z,67.93
2019-03-21T18:22:57.900Z,70.00
2019-03-21T18:25:26.873Z,63.33
2019-03-21T18:27:55.663Z,67.13
2019-03-21T18:30:24.549Z,65.00
2019-03-21T18:32:53.576Z,91.87
2019-03-21T18:35:22.431Z,117.10
2019-03-21T18:37:51.235Z,104.17
2019-03-21T18:40:20.987Z,94.67
2019-03-21T18:42:49.804Z,85.90
2019-03-21T18:45:19.131Z,76.90
2019-03-21T18:47:47.970Z,74.47
2019-03-21T18:50:17.408Z,79.83
2019-03-21T18:52:46.139Z,71.60
2019-03-21T18:55:15.078Z,82.30
2019-03-21T18:57:43.829Z,79.63
2019-03-21T19:00:15.242Z,82.60
2019-03-21T19:02:44.232Z,82.53
2019-03-21T19:05:13.006Z,75.10
2019-03-21T19:07:41.798Z,97.17
2019-03-21T19:10:12.882Z,116.77
2019-03-21T19:12:41.729Z,97.13
2019-03-21T19:15:12.439Z,96.53
2019-03-21T19:17:41.363Z,93.43
2019-03-21T19:20:19.665Z,87.30
2019-03-21T19:22:51.139Z,88.67
2019-03-21T19:25:20.602Z,96.77
2019-03-21T19:27:49.591Z,102.63
2019-03-21T19:30:21.522Z,105.07
2019-03-21T19:32:50.727Z,119.60
2019-03-21T19:35:19.685Z,146.17
2019-03-21T19:37:48.633Z,157.20
2019-03-21T19:40:22.846Z,136.47
2019-03-21T19:42:52.054Z,142.63
2019-03-21T19:45:21.456Z,131.70
2019-03-21T19:47:50.522Z,126.00
2019-03-21T19:50:20.677Z,129.00
2019-03-21T19:52:49.461Z,120.53
2019-03-21T19:55:25.909Z,108.93
2019-03-21T19:57:49.237Z,113.97
2019-03-21T20:00:24.223Z,135.27
2019-03-21T20:02:53.068Z,135.50
2019-03-21T20:05:22.031Z,172.90
2019-03-21T20:07:50.797Z,144.70
2019-03-21T20:10:23.016Z,134.20
2019-03-21T20:12:52.021Z,123.17
2019-03-21T20:15:20.976Z,119.03
2019-03-21T20:17:50.118Z,110.93
2019-03-21T20:20:19.532Z,104.37
2019-03-21T20:22:48.295Z,96.03
2019-03-21T20:25:17.194Z,91.90
2019-03-21T20:27:46.480Z,80.27
2019-03-21T20:30:22.452Z,90.13
2019-03-21T20:32:51.449Z,90.30
2019-03-21T20:35:20.105Z,92.73
2019-03-21T20:37:48.972Z,82.70
2019-03-21T20:40:19.224Z,81.33
2019-03-21T20:42:48.072Z,76.70
2019-03-21T20:45:20.342Z,79.43
2019-03-21T20:47:49.108Z,87.83
2019-03-21T20:50:18.758Z,83.00
2019-03-21T20:52:47.931Z,76.63
2019-03-21T20:55:17.049Z,85.33
2019-03-21T20:57:45.961Z,85.80
2019-03-21T21:00:22.999Z,89.67
2019-03-21T21:02:53.113Z,87.33
2019-03-21T21:05:23.229Z,86.57
2019-03-21T21:07:52.458Z,93.37
2019-03-21T21:10:21.425Z,96.70
2019-03-21T21:12:50.313Z,100.67
2019-03-21T21:15:19.214Z,88.80
2019-03-21T21:17:48.051Z,100.90
2019-03-21T21:20:17.678Z,116.83
2019-03-21T21:22:46.529Z,112.70
2019-03-21T21:25:15.497Z,112.73
2019-03-21T21:27:49.866Z,101.37
2019-03-21T21:30:20.601Z,94.40
2019-03-21T21:32:49.556Z,95.93
2019-03-21T21:35:18.688Z,101.00
2019-03-21T21:37:47.583Z,105.17
2019-03-21T21:40:17.550Z,145.77
2019-03-21T21:42:46.847Z,178.93
2019-03-21T21:45:17.279Z,176.90
2019-03-21T21:47:46.873Z,163.97
2019-03-21T21:50:17.399Z,157.30
2019-03-21T21:52:46.343Z,170.63
2019-03-21T21:55:15.434Z,192.27
2019-03-21T21:57:44.526Z,232.23
2019-03-21T22:00:21.071Z,177.13
2019-03-21T22:02:49.711Z,227.03
2019-03-21T22:05:18.744Z,237.57
2019-03-21T22:07:47.812Z,267.27
2019-03-21T22:10:16.722Z,248.87
2019-03-21T22:12:45.595Z,225.17
2019-03-21T22:15:15.886Z,188.80
2019-03-21T22:17:44.785Z,162.37
2019-03-21T22:20:14.889Z,158.97
2019-03-21T22:22:43.824Z,156.40
2019-03-21T22:25:13.043Z,132.77
2019-03-21T22:27:42.114Z,101.93
2019-03-21T22:30:16.713Z,104.20
2019-03-21T22:32:45.724Z,115.33
2019-03-21T22:35:14.499Z,103.47
2019-03-21T22:37:43.461Z,111.23
2019-03-21T22:40:14.512Z,105.13
2019-03-21T22:42:43.127Z,83.77
2019-03-21T22:45:16.832Z,74.43
2019-03-21T22:47:45.625Z,69.43
2019-03-21T22:50:15.995Z,67.00
2019-03-21T22:52:45.396Z,64.80
2019-03-21T22:55:14.654Z,64.53
2019-03-21T22:57:43.565Z,61.47
2019-03-21T23:00:34.874Z,59.73
2019-03-21T23:03:04.074Z,59.70
2019-03-21T23:05:32.768Z,60.03
2019-03-21T23:08:01.435Z,59.53
2019-03-21T23:10:30.170Z,60.73
2019-03-21T23:12:58.911Z,59.57
2019-03-21T23:15:27.644Z,61.60
2019-03-21T23:17:56.367Z,60.33
2019-03-21T23:20:25.228Z,63.67
2019-03-21T23:22:54.081Z,61.87
2019-03-21T23:25:22.814Z,64.00
2019-03-21T23:27:51.515Z,66.77
2019-03-21T23:30:20.431Z,66.27
2019-03-21T23:32:49.129Z,77.20
2019-03-21T23:35:17.909Z,72.87
2019-03-21T23:37:46.719Z,73.47
2019-03-21T23:40:16.460Z,68.13
2019-03-21T23:42:45.264Z,70.67
2019-03-21T23:45:14.578Z,67.87
2019-03-21T23:47:43.397Z,72.13
2019-03-21T23:50:15.934Z,67.27
2019-03-21T23:52:44.745Z,65.50
2019-03-21T23:55:13.678Z,64.27
2019-03-21T23:57:42.386Z,58.33
